createdAt,value
2022-08-23T00:00:13.333Z,22.80
2022-08-23T00:01:49.624Z,22.80
2022-08-23T00:03:23.021Z,22.80
2022-08-23T00:05:07.519Z,22.70
2022-08-23T00:06:43.074Z,22.70
2022-08-23T00:08:15.818Z,22.60
2022-08-23T00:09:48.559Z,22.60
2022-08-23T00:11:31.553Z,22.60
2022-08-23T00:13:04.357Z,22.50
2022-08-23T00:14:39.187Z,22.50
2022-08-23T00:16:11.947Z,22.40
2022-08-23T00:17:44.790Z,22.50
2022-08-23T00:19:19.376Z,22.40
2022-08-23T00:20:52.258Z,22.40
2022-08-23T00:22:24.982Z,22.40
2022-08-23T00:23:57.402Z,22.30
2022-08-23T00:25:30.138Z,22.30
2022-08-23T00:27:08.659Z,22.20
2022-08-23T00:28:40.544Z,22.20
2022-08-23T00:30:15.288Z,22.20
2022-08-23T00:31:47.703Z,22.20
2022-08-23T00:33:21.138Z,22.20
2022-08-23T00:34:54.788Z,22.10
2022-08-23T00:36:26.567Z,22.10
2022-08-23T00:38:32.589Z,22.00
2022-08-23T00:39:52.555Z,21.90
2022-08-23T00:41:24.478Z,21.90
2022-08-23T00:43:27.229Z,21.90
2022-08-23T00:45:21.533Z,21.80
2022-08-23T00:47:18.142Z,21.80
2022-08-23T00:48:52.359Z,21.70
2022-08-23T00:50:33.619Z,21.70
2022-08-23T00:52:11.199Z,21.60
2022-08-23T00:53:48.292Z,21.60
2022-08-23T00:55:22.082Z,21.50
2022-08-23T00:56:55.750Z,21.50
2022-08-23T00:58:30.786Z,21.50
2022-08-23T01:00:05.227Z,21.40
2022-08-23T01:01:38.737Z,21.40
2022-08-23T01:03:12.255Z,21.40
2022-08-23T01:04:51.003Z,21.40
2022-08-23T01:06:28.130Z,21.30
2022-08-23T01:08:01.953Z,21.30
2022-08-23T01:09:35.050Z,21.30
2022-08-23T01:11:10.706Z,21.30
2022-08-23T01:12:48.679Z,21.20
2022-08-23T01:14:30.118Z,21.20
2022-08-23T01:16:10.626Z,21.20
2022-08-23T01:17:47.093Z,21.20
2022-08-23T01:19:34.991Z,21.10
2022-08-23T01:21:15.487Z,21.10
2022-08-23T01:22:54.798Z,21.10
2022-08-23T01:24:47.377Z,21.00
2022-08-23T01:26:25.365Z,21.00
2022-08-23T01:27:58.432Z,20.90
2022-08-23T01:29:31.384Z,20.90
2022-08-23T01:31:06.644Z,20.90
2022-08-23T01:32:45.254Z,20.90
2022-08-23T01:34:18.208Z,20.80
2022-08-23T01:35:54.070Z,20.90
2022-08-23T01:37:26.831Z,20.80
2022-08-23T01:38:59.687Z,20.90
2022-08-23T01:40:34.110Z,20.90
2022-08-23T01:42:08.018Z,20.90
2022-08-23T01:43:40.774Z,20.80
2022-08-23T01:45:14.787Z,20.80
2022-08-23T01:46:48.319Z,20.90
2022-08-23T01:48:26.222Z,20.80
2022-08-23T01:49:58.110Z,20.80
2022-08-23T01:51:31.128Z,20.80
2022-08-23T01:53:04.315Z,20.70
2022-08-23T01:54:37.225Z,20.70
2022-08-23T01:56:11.344Z,20.70
2022-08-23T01:57:48.415Z,20.60
2022-08-23T01:59:21.526Z,20.60
2022-08-23T02:00:54.309Z,20.60
2022-08-23T02:02:28.212Z,20.60
2022-08-23T02:04:04.822Z,20.60
2022-08-23T02:05:38.247Z,20.60
2022-08-23T02:07:10.131Z,20.60
2022-08-23T02:09:00.473Z,20.60
2022-08-23T02:10:33.203Z,20.50
2022-08-23T02:12:07.959Z,20.50
2022-08-23T02:13:39.854Z,20.50
2022-08-23T02:15:13.111Z,20.50
2022-08-23T02:17:01.608Z,20.50
2022-08-23T02:18:37.736Z,20.50
2022-08-23T02:20:10.959Z,20.50
2022-08-23T02:21:44.134Z,20.50
2022-08-23T02:23:18.028Z,20.50
2022-08-23T02:24:51.229Z,20.40
2022-08-23T02:26:30.710Z,20.40
2022-08-23T02:28:06.197Z,20.40
2022-08-23T02:29:39.956Z,20.40
2022-08-23T02:31:12.014Z,20.40
2022-08-23T02:32:45.165Z,20.30
2022-08-23T02:34:20.735Z,20.30
2022-08-23T02:35:53.535Z,20.30
2022-08-23T02:37:26.482Z,20.30
2022-08-23T02:38:58.531Z,20.30
2022-08-23T02:40:31.360Z,20.20
2022-08-23T02:42:03.914Z,20.20
2022-08-23T02:43:41.076Z,20.20
2022-08-23T02:45:13.163Z,20.20
2022-08-23T02:46:46.084Z,20.10
2022-08-23T02:48:19.656Z,20.10
2022-08-23T02:49:53.035Z,20.10
2022-08-23T02:51:26.355Z,20.10
2022-08-23T02:52:59.455Z,20.10
2022-08-23T02:54:32.199Z,20.00
2022-08-23T02:56:06.140Z,19.90
2022-08-23T02:57:50.179Z,20.00
2022-08-23T02:59:24.269Z,19.90
2022-08-23T03:00:57.099Z,19.90
2022-08-23T03:02:29.297Z,19.80
2022-08-23T03:04:03.500Z,19.80
2022-08-23T03:05:36.402Z,19.70
2022-08-23T03:07:08.228Z,19.70
2022-08-23T03:08:41.062Z,19.70
2022-08-23T03:10:16.261Z,19.60
2022-08-23T03:11:50.648Z,19.70
2022-08-23T03:13:23.438Z,19.70
2022-08-23T03:14:57.538Z,19.70
2022-08-23T03:16:30.490Z,19.70
2022-08-23T03:18:03.299Z,19.70
2022-08-23T03:19:36.304Z,19.80
2022-08-23T03:21:10.383Z,19.70
2022-08-23T03:22:54.290Z,19.70
2022-08-23T03:24:27.627Z,19.70
2022-08-23T03:26:03.347Z,19.70
2022-08-23T03:27:43.684Z,19.70
2022-08-23T03:29:18.775Z,19.70
2022-08-23T03:30:52.462Z,19.70
2022-08-23T03:32:26.159Z,19.70
2022-08-23T03:33:59.039Z,19.70
2022-08-23T03:35:32.047Z,19.70
2022-08-23T03:37:05.258Z,19.70
2022-08-23T03:38:39.713Z,19.70
2022-08-23T03:40:13.110Z,19.70
2022-08-23T03:41:45.891Z,19.60
2022-08-23T03:43:18.990Z,19.60
2022-08-23T03:44:56.771Z,19.70
2022-08-23T03:46:37.190Z,19.60
2022-08-23T03:48:09.974Z,19.60
2022-08-23T03:49:42.784Z,19.50
2022-08-23T03:51:14.633Z,19.50
2022-08-23T03:52:47.583Z,19.40
2022-08-23T03:54:20.490Z,19.40
2022-08-23T03:55:56.930Z,19.40
2022-08-23T03:57:29.659Z,19.40
2022-08-23T03:59:07.002Z,19.30
2022-08-23T04:00:40.319Z,19.30
2022-08-23T04:02:14.858Z,19.30
2022-08-23T04:03:48.312Z,19.30
2022-08-23T04:05:21.563Z,19.20
2022-08-23T04:06:54.351Z,19.20
2022-08-23T04:08:31.930Z,19.20
2022-08-23T04:10:08.755Z,19.20
2022-08-23T04:11:41.515Z,19.20
2022-08-23T04:13:14.299Z,19.20
2022-08-23T04:14:47.059Z,19.20
2022-08-23T04:16:20.054Z,19.20
2022-08-23T04:17:54.333Z,19.10
2022-08-23T04:19:27.139Z,19.10
2022-08-23T04:21:06.222Z,19.10
2022-08-23T04:22:39.345Z,19.10
2022-08-23T04:24:12.723Z,19.10
2022-08-23T04:25:45.551Z,19.00
2022-08-23T04:27:18.694Z,19.00
2022-08-23T04:28:50.531Z,19.00
2022-08-23T04:30:23.353Z,19.00
2022-08-23T04:31:56.935Z,19.00
2022-08-23T04:33:33.908Z,18.90
2022-08-23T04:35:07.426Z,18.90
2022-08-23T04:36:51.659Z,18.90
2022-08-23T04:38:28.142Z,18.90
2022-08-23T04:40:33.096Z,18.90
2022-08-23T04:42:21.805Z,18.90
2022-08-23T04:43:56.256Z,18.90
2022-08-23T04:45:29.455Z,18.90
2022-08-23T04:47:02.383Z,18.90
2022-08-23T04:48:37.229Z,18.90
2022-08-23T04:50:10.175Z,18.90
2022-08-23T04:51:43.146Z,18.90
2022-08-23T04:53:26.450Z,18.90
2022-08-23T04:54:59.194Z,18.90
2022-08-23T04:56:32.171Z,18.90
2022-08-23T04:58:05.005Z,18.90
2022-08-23T04:59:37.851Z,18.90
2022-08-23T05:01:11.607Z,18.90
2022-08-23T05:02:43.818Z,18.90
2022-08-23T05:04:18.590Z,18.90
2022-08-23T05:05:52.693Z,18.90
2022-08-23T05:07:41.867Z,18.90
2022-08-23T05:09:20.564Z,18.90
2022-08-23T05:10:53.967Z,19.00
2022-08-23T05:12:26.723Z,18.90
2022-08-23T05:13:59.435Z,18.90
2022-08-23T05:15:32.210Z,18.80
2022-08-23T05:17:05.147Z,18.80
2022-08-23T05:18:38.048Z,18.80
2022-08-23T05:20:12.710Z,18.80
2022-08-23T05:21:45.550Z,18.90
2022-08-23T05:23:18.396Z,18.90
2022-08-23T05:24:50.273Z,18.80
2022-08-23T05:26:23.250Z,18.90
2022-08-23T05:27:57.395Z,18.90
2022-08-23T05:29:30.365Z,18.90
2022-08-23T05:31:08.185Z,18.90
2022-08-23T05:32:44.409Z,18.90
2022-08-23T05:34:17.190Z,18.90
2022-08-23T05:35:57.523Z,19.00
2022-08-23T05:37:30.287Z,19.00
2022-08-23T05:39:03.176Z,19.00
2022-08-23T05:40:35.926Z,19.00
2022-08-23T05:42:14.480Z,19.00
2022-08-23T05:43:48.042Z,19.10
2022-08-23T05:45:21.228Z,19.10
2022-08-23T05:46:54.807Z,19.10
2022-08-23T05:48:28.012Z,19.20
2022-08-23T05:50:01.376Z,19.20
2022-08-23T05:51:36.480Z,19.20
2022-08-23T05:53:10.714Z,19.30
2022-08-23T05:54:43.499Z,19.30
2022-08-23T05:56:16.984Z,19.40
2022-08-23T05:57:49.922Z,19.40
2022-08-23T05:59:22.798Z,19.40
2022-08-23T06:00:55.770Z,19.40
2022-08-23T06:02:28.603Z,19.40
2022-08-23T06:04:02.631Z,19.40
2022-08-23T06:05:40.539Z,19.50
2022-08-23T06:07:14.691Z,19.50
2022-08-23T06:08:48.566Z,19.50
2022-08-23T06:10:21.556Z,19.50
2022-08-23T06:11:54.579Z,19.60
2022-08-23T06:13:27.330Z,19.60
2022-08-23T06:15:00.201Z,19.60
2022-08-23T06:16:36.128Z,19.70
2022-08-23T06:18:08.916Z,19.70
2022-08-23T06:19:41.667Z,19.80
2022-08-23T06:21:16.509Z,19.80
2022-08-23T06:22:50.639Z,19.90
2022-08-23T06:24:24.179Z,19.90
2022-08-23T06:25:56.556Z,19.90
2022-08-23T06:27:29.316Z,20.00
2022-08-23T06:29:05.842Z,20.00
2022-08-23T06:30:39.999Z,20.10
2022-08-23T06:32:12.026Z,20.10
2022-08-23T06:33:44.914Z,20.20
2022-08-23T06:35:39.490Z,20.20
2022-08-23T06:37:14.335Z,20.30
2022-08-23T06:38:50.847Z,20.30
2022-08-23T06:40:23.892Z,20.40
2022-08-23T06:42:00.617Z,20.40
2022-08-23T06:43:34.488Z,20.40
2022-08-23T06:45:08.139Z,20.40
2022-08-23T06:46:41.146Z,20.50
2022-08-23T06:48:18.276Z,20.50
2022-08-23T06:49:57.704Z,20.60
2022-08-23T06:51:34.032Z,20.60
2022-08-23T06:53:10.072Z,20.70
2022-08-23T06:54:46.929Z,20.70
2022-08-23T06:56:19.819Z,20.70
2022-08-23T06:57:52.605Z,20.80
2022-08-23T06:59:25.588Z,20.80
2022-08-23T07:01:23.442Z,20.90
2022-08-23T07:03:03.568Z,20.90
2022-08-23T07:04:40.456Z,21.00
2022-08-23T07:06:13.326Z,21.10
2022-08-23T07:07:46.338Z,21.10
2022-08-23T07:09:19.583Z,21.10
2022-08-23T07:10:53.767Z,21.20
2022-08-23T07:12:26.523Z,21.30
2022-08-23T07:14:00.977Z,21.30
2022-08-23T07:15:33.807Z,21.30
2022-08-23T07:17:06.790Z,21.30
2022-08-23T07:18:38.884Z,21.40
2022-08-23T07:20:11.863Z,21.50
2022-08-23T07:21:48.818Z,21.50
2022-08-23T07:23:22.330Z,21.60
2022-08-23T07:24:55.187Z,21.70
2022-08-23T07:26:29.347Z,21.70
2022-08-23T07:28:02.637Z,21.90
2022-08-23T07:29:38.044Z,22.10
2022-08-23T07:31:14.676Z,22.30
2022-08-23T07:32:47.728Z,22.60
2022-08-23T07:34:21.156Z,22.90
2022-08-23T07:35:54.247Z,23.20
2022-08-23T07:37:28.238Z,23.50
2022-08-23T07:39:01.545Z,23.80
2022-08-23T07:40:38.771Z,24.10
2022-08-23T07:42:23.857Z,24.40
2022-08-23T07:43:58.043Z,24.70
2022-08-23T07:45:30.959Z,25.00
2022-08-23T07:47:06.070Z,25.30
2022-08-23T07:48:53.361Z,25.50
2022-08-23T07:50:30.518Z,25.80
2022-08-23T07:52:03.613Z,26.00
2022-08-23T07:53:37.599Z,26.30
2022-08-23T07:55:11.207Z,26.40
2022-08-23T07:56:44.317Z,26.70
2022-08-23T07:58:18.942Z,27.00
2022-08-23T07:59:52.487Z,27.30
2022-08-23T08:01:28.573Z,27.50
2022-08-23T08:03:01.500Z,27.70
2022-08-23T08:04:34.487Z,27.90
2022-08-23T08:06:12.810Z,28.10
2022-08-23T08:07:45.566Z,28.40
2022-08-23T08:09:20.152Z,28.70
2022-08-23T08:10:55.843Z,29.00
2022-08-23T08:12:31.934Z,29.30
2022-08-23T08:14:08.584Z,29.50
2022-08-23T08:15:43.146Z,29.70
2022-08-23T08:17:17.038Z,29.80
2022-08-23T08:18:49.875Z,30.00
2022-08-23T08:20:23.719Z,30.10
2022-08-23T08:21:56.466Z,30.20
2022-08-23T08:23:30.002Z,30.40
2022-08-23T08:25:03.014Z,30.50
2022-08-23T08:26:35.823Z,30.60
2022-08-23T08:28:15.193Z,30.80
2022-08-23T08:29:49.982Z,30.90
2022-08-23T08:31:23.446Z,31.00
2022-08-23T08:32:56.274Z,31.20
2022-08-23T08:34:29.046Z,31.30
2022-08-23T08:36:05.095Z,31.50
2022-08-23T08:37:39.231Z,31.60
2022-08-23T08:39:14.646Z,31.80
2022-08-23T08:40:51.507Z,31.90
2022-08-23T08:42:43.400Z,32.00
2022-08-23T08:44:26.497Z,32.10
2022-08-23T08:46:06.398Z,32.30
2022-08-23T08:47:45.231Z,32.50
2022-08-23T08:49:31.994Z,32.70
2022-08-23T08:51:14.992Z,32.80
2022-08-23T08:52:51.405Z,33.00
2022-08-23T08:54:28.568Z,33.10
2022-08-23T08:56:07.805Z,33.20
2022-08-23T08:57:45.428Z,33.20
2022-08-23T08:59:23.688Z,33.20
2022-08-23T09:00:57.250Z,33.10
2022-08-23T09:02:34.708Z,33.20
2022-08-23T09:04:08.689Z,33.30
2022-08-23T09:05:48.573Z,33.40
2022-08-23T09:07:31.297Z,33.50
2022-08-23T09:09:16.726Z,33.60
2022-08-23T09:10:58.667Z,33.70
2022-08-23T09:12:43.428Z,33.80
2022-08-23T09:14:51.987Z,33.90
2022-08-23T09:16:38.016Z,34.00
2022-08-23T09:18:14.495Z,33.80
2022-08-23T09:19:50.818Z,33.70
2022-08-23T09:21:23.831Z,33.60
2022-08-23T09:23:07.351Z,33.70
2022-08-23T09:24:40.736Z,33.90
2022-08-23T09:26:23.011Z,33.90
2022-08-23T09:27:55.835Z,34.10
2022-08-23T09:29:31.233Z,34.20
2022-08-23T09:31:08.404Z,34.30
2022-08-23T09:32:43.978Z,34.30
2022-08-23T09:34:20.925Z,34.30
2022-08-23T09:36:14.190Z,34.40
2022-08-23T09:37:51.702Z,34.30
2022-08-23T09:39:31.103Z,34.40
2022-08-23T09:41:20.134Z,34.40
2022-08-23T09:43:06.968Z,34.40
2022-08-23T09:44:42.374Z,34.40
2022-08-23T09:46:26.625Z,34.50
2022-08-23T09:47:59.900Z,34.60
2022-08-23T09:49:34.051Z,34.70
2022-08-23T09:51:17.633Z,34.80
2022-08-23T09:52:51.196Z,34.80
2022-08-23T09:54:31.015Z,34.90
2022-08-23T09:56:14.095Z,34.90
2022-08-23T09:57:49.457Z,34.60
2022-08-23T09:59:28.872Z,34.40
2022-08-23T10:01:13.477Z,34.40
2022-08-23T10:02:46.311Z,34.30
2022-08-23T10:04:24.451Z,34.40
2022-08-23T10:06:00.751Z,34.30
2022-08-23T10:07:42.364Z,34.20
2022-08-23T10:09:26.489Z,34.10
2022-08-23T10:11:05.682Z,34.20
2022-08-23T10:12:40.999Z,34.30
2022-08-23T10:14:15.990Z,34.30
2022-08-23T10:16:02.955Z,34.30
2022-08-23T10:17:41.590Z,34.30
2022-08-23T10:19:21.111Z,34.40
2022-08-23T10:21:01.947Z,34.40
2022-08-23T10:22:47.335Z,34.30
2022-08-23T10:24:43.415Z,34.10
2022-08-23T10:26:25.812Z,34.00
2022-08-23T10:28:23.704Z,34.00
2022-08-23T10:30:03.415Z,33.90
2022-08-23T10:31:41.770Z,33.70
2022-08-23T10:33:21.071Z,33.50
2022-08-23T10:35:22.612Z,33.40
2022-08-23T10:37:07.983Z,33.30
2022-08-23T10:38:45.753Z,33.30
2022-08-23T10:40:28.315Z,33.40
2022-08-23T10:42:06.589Z,33.40
2022-08-23T10:43:46.488Z,33.50
2022-08-23T10:45:26.219Z,33.60
2022-08-23T10:47:11.393Z,33.70
2022-08-23T10:48:51.431Z,33.70
2022-08-23T10:50:24.366Z,33.70
2022-08-23T10:52:00.104Z,33.70
2022-08-23T10:53:38.427Z,33.80
2022-08-23T10:55:34.709Z,33.80
2022-08-23T10:57:07.637Z,33.80
2022-08-23T10:58:47.358Z,33.70
2022-08-23T11:00:27.555Z,33.70
2022-08-23T11:02:07.403Z,33.40
2022-08-23T11:03:45.818Z,33.20
2022-08-23T11:05:22.230Z,33.10
2022-08-23T11:06:58.713Z,32.90
2022-08-23T11:08:33.908Z,32.80
2022-08-23T11:10:16.644Z,32.80
2022-08-23T11:12:09.298Z,32.60
2022-08-23T11:13:53.042Z,32.60
2022-08-23T11:15:33.095Z,32.60
2022-08-23T11:17:08.258Z,32.60
2022-08-23T11:18:44.318Z,32.60
2022-08-23T11:21:01.131Z,32.60
2022-08-23T11:22:57.119Z,32.60
2022-08-23T11:24:54.719Z,32.60
2022-08-23T11:27:06.663Z,32.60
2022-08-23T11:28:42.579Z,32.60
2022-08-23T11:30:49.636Z,32.60
2022-08-23T11:32:37.868Z,32.50
2022-08-23T11:34:20.710Z,32.40
2022-08-23T11:36:16.398Z,32.30
2022-08-23T11:37:53.249Z,32.20
2022-08-23T11:39:26.952Z,32.10
2022-08-23T11:41:12.484Z,32.20
2022-08-23T11:42:49.716Z,32.10
2022-08-23T11:44:33.971Z,32.20
2022-08-23T11:46:35.100Z,32.20
2022-08-23T11:48:19.102Z,32.30
2022-08-23T11:50:07.837Z,32.20
2022-08-23T11:51:48.402Z,32.20
2022-08-23T11:53:42.147Z,32.20
2022-08-23T11:55:32.187Z,32.20
2022-08-23T11:57:29.303Z,32.00
2022-08-23T11:59:16.647Z,31.90
2022-08-23T12:00:57.322Z,31.90
2022-08-23T12:02:41.136Z,32.00
2022-08-23T12:04:32.446Z,32.00
2022-08-23T12:06:12.536Z,32.00
2022-08-23T12:07:51.895Z,31.90
2022-08-23T12:09:57.279Z,32.00
2022-08-23T12:12:00.685Z,32.00
2022-08-23T12:13:51.274Z,32.00
2022-08-23T12:16:02.092Z,32.00
2022-08-23T12:18:05.348Z,32.00
2022-08-23T12:19:42.329Z,32.00
2022-08-23T12:21:21.910Z,31.90
2022-08-23T12:23:02.689Z,32.00
2022-08-23T12:24:44.698Z,31.90
2022-08-23T12:26:27.284Z,31.90
2022-08-23T12:28:11.651Z,31.90
2022-08-23T12:29:53.359Z,31.90
2022-08-23T12:31:34.209Z,31.80
2022-08-23T12:33:20.050Z,31.80
2022-08-23T12:35:06.658Z,31.70
2022-08-23T12:36:50.176Z,31.70
2022-08-23T12:38:36.252Z,31.70
2022-08-23T12:40:15.611Z,31.50
2022-08-23T12:41:56.298Z,31.60
2022-08-23T12:43:31.378Z,31.60
2022-08-23T12:45:09.003Z,31.60
2022-08-23T12:46:44.504Z,31.50
2022-08-23T12:48:21.915Z,31.50
2022-08-23T12:49:57.863Z,31.50
2022-08-23T12:51:31.055Z,31.60
2022-08-23T12:53:07.006Z,31.60
2022-08-23T12:54:42.403Z,31.60
2022-08-23T12:56:18.715Z,31.60
2022-08-23T12:57:54.429Z,31.60
2022-08-23T12:59:35.687Z,31.60
2022-08-23T13:01:19.023Z,31.60
2022-08-23T13:02:58.237Z,31.60
2022-08-23T13:04:33.172Z,31.60
2022-08-23T13:06:11.121Z,31.60
2022-08-23T13:07:44.666Z,31.50
2022-08-23T13:09:21.314Z,31.50
2022-08-23T13:10:54.377Z,31.50
2022-08-23T13:12:28.152Z,31.50
2022-08-23T13:14:01.102Z,31.50
2022-08-23T13:15:47.667Z,31.40
2022-08-23T13:17:23.610Z,31.40
2022-08-23T13:19:10.389Z,31.30
2022-08-23T13:20:44.826Z,31.30
2022-08-23T13:22:24.392Z,31.30
2022-08-23T13:24:00.872Z,31.20
2022-08-23T13:25:37.028Z,31.10
2022-08-23T13:27:20.123Z,31.10
2022-08-23T13:29:02.935Z,31.00
2022-08-23T13:30:38.262Z,31.00
2022-08-23T13:32:27.375Z,31.00
2022-08-23T13:34:00.120Z,31.10
2022-08-23T13:35:39.715Z,31.20
2022-08-23T13:37:24.188Z,31.20
2022-08-23T13:38:57.050Z,31.20
2022-08-23T13:40:33.228Z,31.20
2022-08-23T13:42:06.260Z,31.20
2022-08-23T13:43:46.111Z,31.20
2022-08-23T13:45:21.586Z,31.20
2022-08-23T13:46:54.623Z,31.20
2022-08-23T13:48:31.260Z,31.30
2022-08-23T13:50:07.384Z,31.30
2022-08-23T13:51:45.512Z,31.30
2022-08-23T13:53:20.475Z,31.30
2022-08-23T13:54:53.286Z,31.30
2022-08-23T13:56:27.707Z,31.30
2022-08-23T13:58:00.637Z,31.20
2022-08-23T13:59:35.659Z,31.10
2022-08-23T14:01:15.427Z,31.10
2022-08-23T14:02:49.010Z,31.10
2022-08-23T14:04:21.947Z,31.10
2022-08-23T14:05:54.949Z,31.10
2022-08-23T14:07:28.761Z,31.10
2022-08-23T14:09:02.884Z,30.90
2022-08-23T14:10:35.791Z,31.00
2022-08-23T14:12:13.427Z,31.00
2022-08-23T14:13:48.516Z,31.00
2022-08-23T14:15:54.484Z,31.00
2022-08-23T14:17:16.964Z,31.00
2022-08-23T14:20:45.891Z,31.10
2022-08-23T14:22:19.662Z,31.00
2022-08-23T14:23:52.435Z,31.00
2022-08-23T14:25:26.724Z,31.10
2022-08-23T14:26:59.612Z,31.10
2022-08-23T14:28:32.379Z,31.10
2022-08-23T14:30:06.447Z,31.00
2022-08-23T14:31:39.445Z,31.00
2022-08-23T14:33:13.622Z,31.00
2022-08-23T14:34:46.331Z,31.00
2022-08-23T14:36:19.125Z,31.00
2022-08-23T14:38:09.362Z,31.00
2022-08-23T14:39:42.220Z,31.00
2022-08-23T14:41:19.683Z,30.90
2022-08-23T14:42:52.522Z,30.90
2022-08-23T14:44:29.020Z,30.90
2022-08-23T14:46:05.742Z,30.80
2022-08-23T14:47:38.722Z,30.80
2022-08-23T14:49:12.062Z,30.70
2022-08-23T14:50:45.177Z,30.70
2022-08-23T14:52:18.011Z,30.70
2022-08-23T14:53:51.266Z,30.70
2022-08-23T14:55:25.171Z,30.70
2022-08-23T14:56:59.635Z,30.60
2022-08-23T14:58:32.431Z,30.60
2022-08-23T15:00:06.856Z,30.60
2022-08-23T15:01:40.474Z,30.60
2022-08-23T15:03:18.601Z,30.60
2022-08-23T15:04:51.463Z,30.60
2022-08-23T15:06:24.251Z,30.60
2022-08-23T15:07:57.056Z,30.60
2022-08-23T15:09:29.848Z,30.70
2022-08-23T15:13:03.073Z,30.70
2022-08-23T15:14:48.827Z,30.70
2022-08-23T15:16:23.775Z,30.80
2022-08-23T15:17:59.586Z,30.80
2022-08-23T15:19:32.342Z,30.80
2022-08-23T15:21:05.634Z,30.90
2022-08-23T15:22:45.277Z,30.90
2022-08-23T15:24:29.015Z,30.90
2022-08-23T15:26:02.071Z,30.90
2022-08-23T15:27:34.877Z,30.90
2022-08-23T15:29:09.003Z,30.90
2022-08-23T15:30:42.168Z,31.00
2022-08-23T15:32:14.934Z,30.90
2022-08-23T15:33:55.335Z,30.90
2022-08-23T15:35:29.350Z,30.80
2022-08-23T15:37:02.230Z,30.80
2022-08-23T15:38:36.596Z,30.80
2022-08-23T15:40:11.180Z,30.90
2022-08-23T15:41:44.032Z,30.80
2022-08-23T15:43:18.050Z,30.90
2022-08-23T15:44:52.200Z,30.90
2022-08-23T15:46:25.137Z,30.90
2022-08-23T15:47:58.840Z,30.90
2022-08-23T15:49:36.545Z,30.90
2022-08-23T15:51:10.591Z,30.90
2022-08-23T15:52:43.360Z,30.90
2022-08-23T15:54:16.183Z,30.90
2022-08-23T15:55:49.841Z,30.90
2022-08-23T15:57:29.244Z,30.90
2022-08-23T15:59:02.269Z,30.90
2022-08-23T16:00:36.464Z,30.90
2022-08-23T16:02:09.358Z,30.90
2022-08-23T16:03:43.615Z,30.90
2022-08-23T16:05:16.432Z,31.00
2022-08-23T16:06:49.364Z,31.00
2022-08-23T16:08:25.667Z,30.90
2022-08-23T16:09:59.555Z,30.90
2022-08-23T16:11:32.606Z,30.90
2022-08-23T16:13:05.371Z,30.90
2022-08-23T16:14:38.604Z,30.90
2022-08-23T16:16:18.486Z,30.90
2022-08-23T16:17:51.354Z,30.90
2022-08-23T16:19:24.124Z,30.90
2022-08-23T16:20:56.894Z,30.90
2022-08-23T16:22:29.714Z,30.90
2022-08-23T16:24:02.639Z,30.90
2022-08-23T16:25:35.571Z,30.90
2022-08-23T16:27:09.775Z,30.90
2022-08-23T16:28:43.158Z,30.90
2022-08-23T16:30:16.664Z,30.90
2022-08-23T16:31:50.853Z,30.90
2022-08-23T16:33:23.598Z,30.90
2022-08-23T16:34:56.369Z,30.90
2022-08-23T16:36:30.409Z,30.90
2022-08-23T16:38:03.253Z,30.90
2022-08-23T16:39:36.361Z,30.90
2022-08-23T16:41:09.182Z,30.90
2022-08-23T16:42:42.238Z,30.90
2022-08-23T16:44:15.046Z,30.90
2022-08-23T16:45:47.919Z,30.90
2022-08-23T16:47:22.173Z,30.90
2022-08-23T16:48:54.916Z,30.90
2022-08-23T16:50:28.319Z,30.90
2022-08-23T16:52:01.202Z,30.90
2022-08-23T16:53:34.526Z,30.90
2022-08-23T16:55:10.276Z,30.90
2022-08-23T16:56:43.594Z,30.90
2022-08-23T16:58:16.415Z,30.90
2022-08-23T16:59:50.540Z,30.80
2022-08-23T17:01:23.416Z,30.80
2022-08-23T17:02:57.714Z,30.80
2022-08-23T17:04:31.503Z,30.80
2022-08-23T17:06:04.471Z,30.80
2022-08-23T17:07:37.269Z,30.70
2022-08-23T17:09:10.194Z,30.70
2022-08-23T17:10:43.636Z,30.70
2022-08-23T17:12:17.011Z,30.70
2022-08-23T17:13:49.762Z,30.70
2022-08-23T17:15:25.840Z,30.70
2022-08-23T17:16:59.940Z,30.70
2022-08-23T17:18:34.118Z,30.70
2022-08-23T17:20:07.695Z,30.70
2022-08-23T17:21:41.794Z,30.70
2022-08-23T17:23:14.571Z,30.60
2022-08-23T17:24:48.234Z,30.70
2022-08-23T17:26:26.051Z,30.60
2022-08-23T17:27:59.181Z,30.60
2022-08-23T17:29:34.596Z,30.60
2022-08-23T17:31:10.967Z,30.60
2022-08-23T17:32:44.169Z,30.60
2022-08-23T17:34:18.302Z,30.60
2022-08-23T17:35:51.086Z,30.50
2022-08-23T17:37:24.214Z,30.50
2022-08-23T17:38:57.386Z,30.50
2022-08-23T17:40:32.594Z,30.50
2022-08-23T17:42:06.015Z,30.50
2022-08-23T17:43:38.822Z,30.50
2022-08-23T17:45:12.163Z,30.40
2022-08-23T17:46:46.286Z,30.40
2022-08-23T17:48:21.836Z,30.40
2022-08-23T17:49:57.034Z,30.40
2022-08-23T17:51:29.795Z,30.40
2022-08-23T17:53:03.275Z,30.30
2022-08-23T17:54:37.260Z,30.30
2022-08-23T17:56:12.219Z,30.30
2022-08-23T17:57:46.646Z,30.30
2022-08-23T17:59:21.774Z,30.30
2022-08-23T18:00:54.594Z,30.20
2022-08-23T18:02:27.602Z,30.20
2022-08-23T18:04:00.353Z,30.10
2022-08-23T18:05:36.122Z,30.10
2022-08-23T18:07:09.053Z,30.00
2022-08-23T18:08:41.799Z,30.00
2022-08-23T18:10:14.740Z,29.90
2022-08-23T18:11:48.655Z,29.90
2022-08-23T18:13:22.022Z,29.80
2022-08-23T18:14:54.833Z,29.70
2022-08-23T18:16:34.509Z,29.60
2022-08-23T18:18:08.312Z,29.60
2022-08-23T18:19:41.086Z,29.50
2022-08-23T18:21:15.275Z,29.50
2022-08-23T18:22:48.468Z,29.40
2022-08-23T18:24:21.955Z,29.40
2022-08-23T18:25:54.694Z,29.30
2022-08-23T18:27:45.170Z,29.30
2022-08-23T18:29:17.798Z,29.30
2022-08-23T18:30:53.067Z,29.20
2022-08-23T18:32:26.206Z,29.20
2022-08-23T18:34:00.633Z,29.20
2022-08-23T18:35:34.427Z,29.10
2022-08-23T18:37:09.477Z,29.10
2022-08-23T18:38:42.229Z,29.00
2022-08-23T18:40:15.062Z,29.00
2022-08-23T18:41:47.875Z,29.00
2022-08-23T18:43:26.191Z,28.90
2022-08-23T18:44:58.988Z,28.90
2022-08-23T18:46:33.798Z,28.90
2022-08-23T18:48:07.102Z,28.80
2022-08-23T18:49:40.399Z,28.80
2022-08-23T18:51:18.162Z,28.70
2022-08-23T18:52:52.338Z,28.70
2022-08-23T18:54:25.166Z,28.70
2022-08-23T18:55:58.138Z,28.60
2022-08-23T18:57:30.927Z,28.60
2022-08-23T18:59:08.380Z,28.50
2022-08-23T19:00:41.746Z,28.50
2022-08-23T19:02:14.717Z,28.40
2022-08-23T19:03:47.765Z,28.40
2022-08-23T19:05:20.618Z,28.40
2022-08-23T19:06:54.483Z,28.30
2022-08-23T19:08:28.678Z,28.20
2022-08-23T19:10:02.446Z,28.20
2022-08-23T19:11:36.331Z,28.20
2022-08-23T19:13:10.005Z,28.10
2022-08-23T19:14:42.759Z,28.10
2022-08-23T19:16:16.979Z,28.00
2022-08-23T19:17:49.844Z,27.90
2022-08-23T19:19:23.895Z,27.90
2022-08-23T19:20:56.788Z,27.90
2022-08-23T19:22:29.635Z,27.80
2022-08-23T19:24:05.109Z,27.90
2022-08-23T19:25:38.403Z,27.80
2022-08-23T19:27:11.219Z,27.80
2022-08-23T19:28:44.347Z,27.80
2022-08-23T19:30:17.598Z,27.80
2022-08-23T19:31:50.894Z,27.70
2022-08-23T19:33:23.725Z,27.70
2022-08-23T19:34:56.456Z,27.70
2022-08-23T19:36:45.258Z,27.70
2022-08-23T19:38:19.586Z,27.60
2022-08-23T19:39:53.760Z,27.60
2022-08-23T19:41:26.611Z,27.60
2022-08-23T19:43:00.299Z,27.60
2022-08-23T19:44:34.683Z,27.50
2022-08-23T19:46:08.190Z,27.50
2022-08-23T19:47:41.223Z,27.50
2022-08-23T19:49:15.451Z,27.50
2022-08-23T19:50:49.371Z,27.50
2022-08-23T19:52:22.195Z,27.40
2022-08-23T19:54:11.620Z,27.50
2022-08-23T19:55:47.803Z,27.40
2022-08-23T19:57:22.239Z,27.40
2022-08-23T19:58:55.019Z,27.40
2022-08-23T20:00:29.069Z,27.40
2022-08-23T20:02:02.917Z,27.30
2022-08-23T20:03:35.788Z,27.30
2022-08-23T20:05:09.943Z,27.30
2022-08-23T20:06:42.781Z,27.30
2022-08-23T20:08:15.535Z,27.30
2022-08-23T20:09:48.280Z,27.30
2022-08-23T20:11:22.684Z,27.30
2022-08-23T20:12:55.675Z,27.30
2022-08-23T20:14:31.202Z,27.20
2022-08-23T20:16:04.785Z,27.20
2022-08-23T20:17:38.252Z,27.20
2022-08-23T20:19:11.342Z,27.20
2022-08-23T20:20:44.219Z,27.10
2022-08-23T20:22:35.006Z,27.00
2022-08-23T20:24:09.715Z,27.00
2022-08-23T20:25:42.775Z,27.00
2022-08-23T20:27:25.435Z,27.00
2022-08-23T20:29:06.086Z,26.90
2022-08-23T20:30:38.883Z,27.00
2022-08-23T20:32:11.960Z,26.90
2022-08-23T20:33:46.376Z,26.90
2022-08-23T20:35:19.526Z,26.80
2022-08-23T20:36:53.239Z,26.90
2022-08-23T20:38:33.864Z,26.80
2022-08-23T20:40:10.058Z,26.80
2022-08-23T20:41:42.920Z,26.80
2022-08-23T20:43:17.851Z,26.80
2022-08-23T20:44:50.631Z,26.80
2022-08-23T20:46:23.568Z,26.80